Time;durP1;ratioP1;P1;durP2;ratioP2;P2;SDS_P1;SDS_P2;PMS_P1;PMS_P2;Temp;Humidity;BMP_temperature;BMP_pressure;BME280_temperature;BME280_humidity;BME280_pressure;Samples;Min_cycle;Max_cycle;Signal;HPM_P1;HPM_P2
2021/10/04 00:01:27;;;;;;;27.70;12.40;;;;;;;9.86;75.62;100088.20;113195;1193;26284;-60
2021/10/04 00:03:55;;;;;;;27.90;13.00;;;;;;;9.87;75.82;100091.56;113142;1198;24096;-60
2021/10/04 00:06:23;;;;;;;24.50;10.90;;;;;;;9.89;75.79;100094.59;113144;1198;22430;-61
2021/10/04 00:08:52;;;;;;;26.20;11.70;;;;;;;9.89;76.05;100095.30;113295;1193;24051;-59
2021/10/04 00:11:22;;;;;;;25.70;11.40;;;;;;;9.89;76.26;100096.58;113194;1198;22458;-59
2021/10/04 00:13:50;;;;;;;;;;;;;;;9.90;76.33;100096.77;113176;1198;25103;-59
2021/10/04 00:16:18;;;;;;;26.70;12.50;;;;;;;9.88;76.54;100096.11;113021;1198;22538;-59
2021/10/04 00:18:46;;;;;;;25.20;13.20;;;;;;;9.90;76.64;100098.36;112957;1198;23980;-60
2021/10/04 00:21:17;;;;;;;30.20;12.50;;;;;;;9.91;76.74;100096.70;113039;1198;22457;-62
2021/10/04 00:23:45;;;;;;;31.10;14.50;;;;;;;9.92;76.95;100101.19;112975;1193;22417;-59
2021/10/04 00:26:13;;;;;;;29.10;13.50;;;;;;;9.92;76.87;100104.59;113182;1197;22446;-61
2021/10/04 00:28:41;;;;;;;28.00;12.60;;;;;;;9.93;77.00;100097.30;113005;1198;22607;-60
2021/10/04 00:31:10;;;;;;;27.40;12.10;;;;;;;9.93;76.91;100094.98;113059;1193;26106;-60
2021/10/04 00:33:39;;;;;;;24.30;11.10;;;;;;;9.94;77.07;100090.39;113093;1198;22510;-59
2021/10/04 00:36:07;;;;;;;24.30;11.90;;;;;;;9.97;77.16;100088.81;113095;1198;24078;-59
2021/10/04 00:38:35;;;;;;;26.90;12.50;;;;;;;9.99;77.43;100091.19;113122;1176;24200;-62
2021/10/04 00:41:04;;;;;;;26.30;11.70;;;;;;;10.00;77.37;100083.65;113133;1198;22441;-62
2021/10/04 00:43:32;;;;;;;28.90;12.50;;;;;;;10.02;77.47;100082.56;113147;1198;25072;-60
2021/10/04 00:46:00;;;;;;;23.70;10.90;;;;;;;10.04;77.52;100084.38;113055;1198;22879;-60
2021/10/04 00:48:28;;;;;;;24.80;12.80;;;;;;;10.05;77.68;100088.30;112981;1198;25114;-60
2021/10/04 00:50:56;;;;;;;28.30;12.50;;;;;;;10.06;77.74;100086.49;112930;1198;22426;-59
2021/10/04 00:53:25;;;;;;;24.80;11.80;;;;;;;10.07;77.87;100087.17;112925;1193;22442;-60
2021/10/04 00:55:54;;;;;;;28.10;12.60;;;;;;;10.08;78.08;100091.34;113127;1198;25023;-60
2021/10/04 00:58:23;;;;;;;25.30;11.30;;;;;;;10.09;77.98;100093.60;112918;1198;22443;-60
2021/10/04 01:00:52;;;;;;;22.60;11.10;;;;;;;10.10;77.99;100091.77;112967;1193;25603;-62
2021/10/04 01:03:20;;;;;;;23.90;11.80;;;;;;;10.12;78.08;100086.43;113020;1198;25097;-59
2021/10/04 01:05:49;;;;;;;24.20;10.70;;;;;;;10.13;78.17;100087.33;112964;1198;22425;-61
2021/10/04 01:08:19;;;;;;;24.40;11.50;;;;;;;10.14;78.16;100088.10;112959;1198;24093;-59
2021/10/04 01:10:48;;;;;;;24.00;10.90;;;;;;;10.15;78.15;100084.61;112928;1198;24082;-60
2021/10/04 01:13:16;;;;;;;23.50;11.00;;;;;;;10.15;78.24;100083.64;113080;1198;25061;-60
2021/10/04 01:15:45;;;;;;;23.70;12.10;;;;;;;10.16;78.20;100089.04;113102;1198;22489;-60
2021/10/04 01:18:13;;;;;;;26.10;12.40;;;;;;;10.16;78.34;100093.62;113233;1198;24187;-59
2021/10/04 01:20:42;;;;;;;26.20;12.00;;;;;;;10.15;78.37;100100.05;112955;1198;22444;-60
2021/10/04 01:23:10;;;;;;;23.10;10.90;;;;;;;10.15;78.46;100102.38;113151;1198;25061;-59
2021/10/04 01:25:38;;;;;;;23.80;11.20;;;;;;;10.13;78.42;100105.42;112966;1198;25129;-59
2021/10/04 01:28:07;;;;;;;23.40;10.80;;;;;;;10.11;78.34;100105.38;112720;1193;24702;-59
2021/10/04 01:30:35;;;;;;;21.50;10.00;;;;;;;10.10;78.39;100114.73;112929;1198;22481;-60
2021/10/04 01:33:04;;;;;;;26.50;11.10;;;;;;;10.09;78.27;100117.08;112981;1198;25097;-60
2021/10/04 01:35:32;;;;;;;24.00;11.50;;;;;;;10.07;78.21;100117.91;113214;1198;25170;-60
2021/10/04 01:38:00;;;;;;;22.70;11.40;;;;;;;10.05;78.30;100122.02;113218;1177;24053;-59
2021/10/04 01:40:28;;;;;;;26.90;11.10;;;;;;;10.01;78.27;100128.09;113099;1198;22556;-59
2021/10/04 01:42:59;;;;;;;24.50;11.00;;;;;;;9.99;78.27;100131.04;112958;1198;22436;-60
2021/10/04 01:45:30;;;;;;;23.30;10.00;;;;;;;9.96;78.27;100133.08;112925;1198;24050;-60
2021/10/04 01:47:59;;;;;;;25.10;10.50;;;;;;;9.93;78.23;100136.19;112978;1199;22464;-59
2021/10/04 01:50:32;;;;;;;22.40;9.60;;;;;;;9.89;78.21;100136.06;112623;1199;22457;-60
2021/10/04 01:53:00;;;;;;;25.10;10.10;;;;;;;9.85;78.13;100139.63;112588;1200;22412;-60
2021/10/04 01:55:28;;;;;;;24.60;10.30;;;;;;;9.81;78.20;100139.13;112585;1193;24155;-61
2021/10/04 01:57:57;;;;;;;25.90;11.30;;;;;;;9.77;78.37;100135.58;112846;1199;24076;-60
2021/10/04 02:00:25;;;;;;;21.80;10.30;;;;;;;9.73;78.34;100138.33;113087;1191;25843;-60
2021/10/04 02:02:55;;;;;;;23.30;10.40;;;;;;;9.70;78.29;100137.82;112694;1199;25470;-62
2021/10/04 02:05:25;;;;;;;22.00;10.50;;;;;;;9.67;78.26;100143.73;112858;1192;24130;-62
2021/10/04 02:07:53;;;;;;;21.80;10.10;;;;;;;9.64;78.08;100151.72;113201;1198;22551;-61
2021/10/04 02:10:23;;;;;;;22.50;10.00;;;;;;;9.59;77.94;100155.42;112834;1193;22426;-60
2021/10/04 02:12:52;;;;;;;21.60;10.10;;;;;;;9.54;77.89;100154.41;113050;1198;24167;-61
2021/10/04 02:15:20;;;;;;;22.30;10.10;;;;;;;9.49;77.86;100155.80;112919;1199;22517;-59
2021/10/04 02:17:48;;;;;;;24.60;11.30;;;;;;;9.44;77.94;100153.33;112872;1198;22458;-61
2021/10/04 02:20:20;;;;;;;23.50;11.60;;;;;;;9.40;77.91;100161.09;112945;1193;25050;-59
2021/10/04 02:22:50;;;;;;;21.30;10.10;;;;;;;9.37;77.82;100159.34;113127;1198;22556;-60
2021/10/04 02:25:19;;;;;;;20.10;10.50;;;;;;;9.33;77.80;100163.66;113108;1198;24417;-60
2021/10/04 02:27:48;;;;;;;24.40;11.00;;;;;;;9.29;77.78;100166.50;113303;1198;24307;-61
2021/10/04 02:30:20;;;;;;;20.60;10.10;;;;;;;9.24;77.71;100167.60;113041;1192;24272;-60
2021/10/04 02:32:50;;;;;;;24.50;11.20;;;;;;;9.23;77.75;100160.64;113165;1193;22554;-59
2021/10/04 02:35:19;;;;;;;22.50;11.20;;;;;;;9.23;77.74;100161.00;113417;1198;25321;-59
2021/10/04 02:37:49;;;;;;;22.80;10.40;;;;;;;9.21;77.81;100162.05;113044;1198;22967;-60
2021/10/04 02:40:17;;;;;;;26.20;10.70;;;;;;;9.17;77.99;100160.39;113086;1198;22499;-60
2021/10/04 02:42:46;;;;;;;25.80;11.30;;;;;;;9.13;78.20;100159.48;113089;1198;22457;-60
2021/10/04 02:45:17;;;;;;;24.10;10.80;;;;;;;9.09;78.14;100161.18;113032;1193;22986;-63
2021/10/04 02:47:48;;;;;;;22.80;10.60;;;;;;;9.07;78.18;100163.30;112981;1198;24212;-61
2021/10/04 02:50:19;;;;;;;23.60;10.30;;;;;;;9.04;78.03;100160.86;113141;1198;24073;-59
2021/10/04 02:52:47;;;;;;;22.40;10.40;;;;;;;9.02;78.30;100161.67;112980;1198;25570;-59
2021/10/04 02:55:15;;;;;;;21.90;10.50;;;;;;;9.00;78.39;100164.95;112945;1198;25105;-60
2021/10/04 02:57:44;;;;;;;21.70;9.70;;;;;;;8.97;78.33;100162.52;112988;1192;25274;-60
2021/10/04 03:00:16;;;;;;;26.10;10.20;;;;;;;8.95;78.70;100161.26;113118;1198;25125;-59
2021/10/04 03:02:45;;;;;;;24.10;11.00;;;;;;;8.96;78.54;100159.15;112993;1193;22443;-59
2021/10/04 03:05:13;;;;;;;21.70;10.10;;;;;;;8.94;78.47;100160.69;113480;1198;25067;-60
2021/10/04 03:07:42;;;;;;;19.80;10.70;;;;;;;8.92;78.48;100156.41;113132;1193;24229;-60
2021/10/04 03:10:10;;;;;;;24.90;11.50;;;;;;;8.89;78.26;100156.86;112950;1198;24071;-59
2021/10/04 03:12:39;;;;;;;26.10;10.60;;;;;;;8.86;78.28;100159.17;113190;1198;22461;-60
2021/10/04 03:15:09;;;;;;;23.00;10.30;;;;;;;8.82;78.35;100159.22;113088;1198;22441;-60
2021/10/04 03:17:37;;;;;;;22.40;10.60;;;;;;;8.78;78.35;100158.69;112866;1177;24040;-60
2021/10/04 03:20:08;;;;;;;25.30;11.60;;;;;;;8.73;78.27;100159.54;112831;1184;24208;-60
2021/10/04 03:22:36;;;;;;;21.60;10.60;;;;;;;8.69;78.27;100161.73;114136;1193;25098;-60
2021/10/04 03:25:05;;;;;;;22.40;10.50;;;;;;;8.65;78.36;100165.88;112926;1193;24198;-58
2021/10/04 03:27:34;;;;;;;21.20;11.20;;;;;;;8.64;78.25;100171.98;113459;1193;25013;-59
2021/10/04 03:30:03;;;;;;;22.20;10.00;;;;;;;8.61;78.11;100169.40;113518;1187;22685;-62
2021/10/04 03:32:31;;;;;;;26.30;12.00;;;;;;;8.58;78.23;100177.64;112786;1193;22560;-62
2021/10/04 03:35:00;;;;;;;23.90;12.50;;;;;;;8.55;78.13;100180.17;113068;1198;22437;-62
2021/10/04 03:37:28;;;;;;;25.20;11.20;;;;;;;8.53;78.18;100176.31;112763;1199;22435;-61
2021/10/04 03:39:56;;;;;;;27.30;13.20;;;;;;;8.49;78.25;100168.45;112869;1199;25036;-62
2021/10/04 03:42:24;;;;;;;26.30;12.60;;;;;;;8.46;78.09;100171.44;113013;1199;22453;-60
2021/10/04 03:44:54;;;;;;;29.40;13.20;;;;;;;8.44;78.28;100184.59;113139;1199;22441;-62
2021/10/04 03:47:22;;;;;;;35.10;16.60;;;;;;;8.43;78.16;100186.63;113071;1199;25021;-60
2021/10/04 03:49:50;;;;;;;29.70;14.20;;;;;;;8.40;78.16;100186.01;113063;1199;22410;-62
2021/10/04 03:52:18;;;;;;;34.30;15.20;;;;;;;8.38;78.11;100184.98;113056;1192;22452;-63
2021/10/04 03:54:46;;;;;;;29.70;15.60;;;;;;;8.35;78.03;100190.32;113004;1199;25076;-62
2021/10/04 03:57:15;;;;;;;34.60;15.10;;;;;;;8.30;78.19;100190.05;112991;1199;25089;-62
2021/10/04 03:59:43;;;;;;;33.30;16.00;;;;;;;8.29;78.26;100191.95;113056;1199;24032;-62
2021/10/04 04:02:12;;;;;;;30.30;14.70;;;;;;;8.27;78.22;100191.02;113061;1193;22560;-62
2021/10/04 04:04:40;;;;;;;31.10;15.20;;;;;;;8.23;78.14;100194.93;113307;1199;23218;-62
2021/10/04 04:07:08;;;;;;;32.20;16.10;;;;;;;8.21;78.17;100197.20;113080;1199;25153;-65
2021/10/04 04:09:36;;;;;;;34.20;16.20;;;;;;;8.18;78.16;100200.47;113104;1199;22457;-62
2021/10/04 04:12:06;;;;;;;33.30;15.00;;;;;;;8.17;78.19;100206.95;113125;1198;22442;-63
2021/10/04 04:14:35;;;;;;;32.80;15.60;;;;;;;8.15;78.25;100200.21;113177;1199;22454;-62
2021/10/04 04:17:04;;;;;;;34.70;17.30;;;;;;;8.11;78.09;100199.61;113093;1198;25171;-62
2021/10/04 04:19:33;;;;;;;34.30;17.00;;;;;;;8.09;78.15;100192.70;112848;1199;23784;-62
2021/10/04 04:22:02;;;;;;;32.90;16.40;;;;;;;8.06;78.23;100197.44;113185;1193;24030;-68
2021/10/04 04:24:30;;;;;;;31.90;16.30;;;;;;;8.04;78.12;100200.55;113012;1198;25269;-62
2021/10/04 04:27:04;;;;;;;31.90;16.70;;;;;;;8.00;78.14;100201.04;113018;1199;22411;-62
2021/10/04 04:29:32;;;;;;;31.20;15.20;;;;;;;7.96;78.20;100207.09;113048;1199;25318;-62
2021/10/04 04:32:00;;;;;;;30.00;15.70;;;;;;;7.93;78.15;100214.69;113066;1193;22441;-63
2021/10/04 04:34:29;;;;;;;31.80;15.50;;;;;;;7.90;78.25;100223.05;112987;1199;22446;-60
2021/10/04 04:36:57;;;;;;;29.20;15.10;;;;;;;7.88;78.20;100226.01;112995;1198;25324;-62
2021/10/04 04:39:25;;;;;;;29.30;14.70;;;;;;;7.86;78.25;100228.70;113085;1192;22466;-62
2021/10/04 04:41:53;;;;;;;30.20;14.60;;;;;;;7.84;78.16;100224.34;112957;1198;22579;-60
2021/10/04 04:44:22;;;;;;;24.60;11.00;;;;;;;7.82;78.50;100226.15;112892;1192;25110;-62
2021/10/04 04:46:50;;;;;;;22.20;10.50;;;;;;;7.82;78.43;100228.31;112903;1199;22423;-62
2021/10/04 04:49:19;;;;;;;21.20;9.00;;;;;;;7.80;78.42;100233.20;113127;1198;25120;-62
2021/10/04 04:51:47;;;;;;;22.10;8.50;;;;;;;7.78;78.36;100230.26;113125;1198;25065;-62
2021/10/04 04:54:15;;;;;;;21.70;9.00;;;;;;;7.74;78.32;100230.01;112905;1198;22413;-62
2021/10/04 04:56:44;;;;;;;26.90;11.10;;;;;;;7.72;78.52;100234.29;113068;1193;22480;-62
2021/10/04 04:59:13;;;;;;;22.40;9.50;;;;;;;7.71;78.49;100236.42;113219;1198;22441;-62
2021/10/04 05:01:42;;;;;;;23.40;9.20;;;;;;;7.69;78.49;100241.57;112998;1199;25233;-62
2021/10/04 05:04:10;;;;;;;20.80;8.60;;;;;;;7.67;78.55;100248.55;113025;1193;22577;-62
2021/10/04 05:06:39;;;;;;;21.90;9.50;;;;;;;7.65;78.63;100251.90;112923;1198;24020;-62
2021/10/04 05:09:07;;;;;;;23.80;9.80;;;;;;;7.64;78.59;100254.33;112997;1193;22716;-62
2021/10/04 05:11:35;;;;;;;23.20;9.70;;;;;;;7.63;78.56;100255.55;113211;1192;24048;-61
2021/10/04 05:14:03;;;;;;;25.10;11.20;;;;;;;7.63;78.61;100255.97;112792;1192;24076;-62
2021/10/04 05:16:31;;;;;;;24.40;10.20;;;;;;;7.61;78.66;100257.29;117124;1198;22898;-62
2021/10/04 05:18:59;;;;;;;26.30;11.10;;;;;;;7.61;78.71;100260.27;117190;1199;22301;-62
2021/10/04 05:21:28;;;;;;;23.40;10.70;;;;;;;7.60;78.86;100264.48;117182;1198;22480;-62
2021/10/04 05:23:56;;;;;;;27.00;12.30;;;;;;;7.62;78.85;100272.11;113380;1192;22993;-63
2021/10/04 05:26:24;;;;;;;31.60;13.20;;;;;;;7.64;78.83;100277.13;114991;1191;24045;-62
2021/10/04 05:28:52;;;;;;;32.10;12.20;;;;;;;7.65;78.99;100283.23;112898;1199;24049;-62
2021/10/04 05:31:20;;;;;;;29.60;12.70;;;;;;;7.68;79.00;100282.88;112746;1192;25239;-62
2021/10/04 05:33:49;;;;;;;30.10;13.20;;;;;;;7.70;79.17;100282.52;113026;1199;24047;-61
2021/10/04 05:36:17;;;;;;;34.50;13.60;;;;;;;7.72;79.19;100284.34;112923;1198;22559;-65
2021/10/04 05:38:46;;;;;;;29.40;11.80;;;;;;;7.73;79.47;100282.52;113016;1199;25133;-60
2021/10/04 05:41:15;;;;;;;28.70;14.30;;;;;;;7.75;79.55;100283.39;113115;1199;22476;-60
2021/10/04 05:43:43;;;;;;;29.20;13.20;;;;;;;7.78;79.68;100282.91;112880;1198;22462;-60
2021/10/04 05:46:12;;;;;;;29.40;14.30;;;;;;;7.79;79.83;100280.85;112958;1199;25026;-60
2021/10/04 05:48:40;;;;;;;31.10;12.20;;;;;;;7.82;79.94;100277.30;113176;1199;25220;-60
2021/10/04 05:51:09;;;;;;;31.10;13.20;;;;;;;7.87;79.99;100282.04;112925;1199;22453;-60
2021/10/04 05:53:39;;;;;;;33.30;14.30;;;;;;;7.90;80.14;100281.27;113203;1199;22545;-59
2021/10/04 05:56:07;;;;;;;32.60;14.30;;;;;;;7.93;80.39;100278.76;113048;1199;22434;-62
2021/10/04 05:58:36;;;;;;;35.50;15.80;;;;;;;7.97;80.58;100281.48;113176;1198;22415;-60
2021/10/04 06:01:04;;;;;;;37.60;16.50;;;;;;;8.01;80.73;100282.50;113024;1199;25182;-60
2021/10/04 06:03:32;;;;;;;40.20;15.10;;;;;;;8.05;80.68;100283.84;113100;1193;26338;-60
2021/10/04 06:06:01;;;;;;;43.10;16.80;;;;;;;8.09;80.92;100289.21;113149;1193;22563;-60
2021/10/04 06:08:31;;;;;;;42.90;19.60;;;;;;;8.13;81.06;100294.23;113507;1199;25029;-61
2021/10/04 06:10:59;;;;;;;45.30;20.50;;;;;;;8.18;81.54;100291.94;112838;1199;24087;-61
2021/10/04 06:13:27;;;;;;;48.50;21.70;;;;;;;8.23;81.59;100288.02;112559;1199;22546;-60
2021/10/04 06:15:55;;;;;;;40.20;19.10;;;;;;;8.28;81.75;100288.52;112733;1184;24075;-60
2021/10/04 06:18:23;;;;;;;47.40;20.40;;;;;;;8.32;81.82;100284.21;112980;1199;24065;-60
2021/10/04 06:20:52;;;;;;;42.10;20.90;;;;;;;8.37;81.95;100287.67;112914;1198;22446;-59
2021/10/04 06:23:21;;;;;;;39.80;20.00;;;;;;;8.42;82.09;100288.71;113063;1198;22472;-60
2021/10/04 06:25:50;;;;;;;44.10;20.60;;;;;;;8.46;82.30;100288.39;112965;1199;25130;-60
2021/10/04 06:28:19;;;;;;;42.70;19.00;;;;;;;8.51;82.42;100289.44;112937;1199;22455;-61
2021/10/04 06:30:47;;;;;;;40.60;18.80;;;;;;;8.57;82.41;100294.02;113154;1199;25111;-61
2021/10/04 06:33:16;;;;;;;34.10;17.30;;;;;;;8.62;82.72;100298.71;112948;1199;22439;-60
2021/10/04 06:35:47;;;;;;;41.80;18.00;;;;;;;8.68;82.89;100296.54;113066;1193;22438;-60
2021/10/04 06:38:15;;;;;;;41.10;18.50;;;;;;;8.74;82.77;100299.55;113262;1192;22576;-61
2021/10/04 06:40:43;;;;;;;38.60;20.30;;;;;;;8.81;83.08;100298.66;112956;1199;25005;-61
2021/10/04 06:43:11;;;;;;;43.20;20.70;;;;;;;8.90;83.41;100304.64;113147;1197;22895;-61
2021/10/04 06:45:39;;;;;;;40.00;20.00;;;;;;;9.01;84.01;100310.58;112986;1198;24067;-60
2021/10/04 06:48:08;;;;;;;43.70;21.90;;;;;;;9.12;84.20;100317.26;113083;1193;24059;-61
2021/10/04 06:50:36;;;;;;;41.70;20.20;;;;;;;9.21;84.14;100316.73;113167;1198;24030;-60
2021/10/04 06:53:04;;;;;;;36.60;20.20;;;;;;;9.29;84.08;100318.14;113010;1193;22569;-60
2021/10/04 06:55:33;;;;;;;37.60;21.10;;;;;;;9.39;84.48;100320.22;112951;1199;25150;-61
2021/10/04 06:58:01;;;;;;;39.00;19.60;;;;;;;9.50;84.84;100316.64;112937;1199;23689;-62
2021/10/04 07:00:30;;;;;;;36.70;20.10;;;;;;;9.62;84.84;100322.86;112906;1199;22756;-61
2021/10/04 07:03:00;;;;;;;37.20;19.60;;;;;;;9.73;85.06;100327.50;112939;1199;22440;-62
2021/10/04 07:05:28;;;;;;;40.90;21.10;;;;;;;9.87;85.45;100335.16;113080;1199;24097;-61
2021/10/04 07:07:56;;;;;;;39.80;20.10;;;;;;;10.00;85.49;100330.09;112806;1192;25907;-60
2021/10/04 07:10:26;;;;;;;33.80;18.80;;;;;;;10.10;85.23;100331.81;112987;1193;23062;-61
2021/10/04 07:12:54;;;;;;;41.80;20.70;;;;;;;10.20;85.71;100333.41;113048;1199;22422;-60
2021/10/04 07:15:22;;;;;;;42.50;22.10;;;;;;;10.35;86.26;100334.90;113027;1199;25159;-61
2021/10/04 07:17:51;;;;;;;44.90;21.60;;;;;;;10.51;86.53;100335.73;112638;1193;22460;-60
2021/10/04 07:20:19;;;;;;;42.50;22.10;;;;;;;10.69;86.90;100340.31;112958;1193;22463;-61
2021/10/04 07:22:50;;;;;;;40.80;21.20;;;;;;;10.87;87.10;100341.79;112910;1193;25181;-61
2021/10/04 07:25:19;;;;;;;45.90;22.40;;;;;;;11.04;86.96;100341.36;112856;1197;22436;-62
2021/10/04 07:27:47;;;;;;;42.40;21.40;;;;;;;11.22;86.95;100342.86;112961;1199;25052;-61
2021/10/04 07:30:16;;;;;;;43.60;21.40;;;;;;;11.38;86.97;100342.54;112855;1198;22937;-60
2021/10/04 07:32:45;;;;;;;38.20;20.20;;;;;;;11.57;86.83;100341.58;112923;1199;22456;-61
2021/10/04 07:35:13;;;;;;;34.10;19.40;;;;;;;11.70;86.57;100339.27;113021;1199;22446;-61
2021/10/04 07:37:42;;;;;;;35.60;17.50;;;;;;;11.81;86.68;100341.79;113306;1192;25192;-61
2021/10/04 07:40:13;;;;;;;32.80;18.30;;;;;;;11.98;86.74;100341.52;112862;1193;22466;-60
2021/10/04 07:42:42;;;;;;;30.60;16.90;;;;;;;12.15;86.64;100347.48;113016;1199;22443;-61
2021/10/04 07:45:12;;;;;;;33.70;18.60;;;;;;;12.34;86.83;100357.47;113132;1199;25187;-62
2021/10/04 07:47:42;;;;;;;32.90;16.60;;;;;;;12.52;86.83;100366.38;113237;1193;22419;-61
2021/10/04 07:50:14;;;;;;;28.80;15.50;;;;;;;12.72;87.03;100368.80;113081;1199;26369;-62
2021/10/04 07:52:43;;;;;;;25.80;14.60;;;;;;;12.92;86.64;100363.74;112924;1199;25051;-61
2021/10/04 07:55:12;;;;;;;31.80;15.20;;;;;;;13.07;86.30;100365.11;113137;1197;22437;-60
2021/10/04 07:57:40;;;;;;;30.20;14.00;;;;;;;13.22;86.05;100368.34;112950;1199;24779;-60
2021/10/04 08:00:10;;;;;;;30.30;12.60;;;;;;;13.37;85.83;100369.40;112843;1196;22500;-61
2021/10/04 08:02:38;;;;;;;30.00;13.60;;;;;;;13.53;85.77;100370.02;112954;1199;25057;-60
2021/10/04 08:05:07;;;;;;;24.50;11.80;;;;;;;13.69;85.34;100366.89;112919;1193;25066;-62
2021/10/04 08:07:36;;;;;;;29.10;13.90;;;;;;;13.83;84.95;100371.76;113161;1197;22435;-60
2021/10/04 08:10:08;;;;;;;30.20;13.10;;;;;;;13.96;84.62;100371.69;112951;1199;25088;-61
2021/10/04 08:12:36;;;;;;;29.60;14.00;;;;;;;14.07;84.36;100370.50;113384;1198;24009;-60
2021/10/04 08:15:08;;;;;;;31.50;14.60;;;;;;;14.17;84.24;100365.36;112992;1199;22431;-61
2021/10/04 08:17:36;;;;;;;30.80;14.70;;;;;;;14.26;84.12;100358.84;113033;1199;25102;-60
2021/10/04 08:20:08;;;;;;;29.20;13.10;;;;;;;14.36;83.84;100356.71;112992;1197;23437;-61
2021/10/04 08:22:38;;;;;;;34.90;14.30;;;;;;;14.48;83.60;100356.57;113028;1199;25429;-60
2021/10/04 08:25:10;;;;;;;24.70;12.10;;;;;;;14.59;83.37;100356.21;115694;1199;22609;-61
2021/10/04 08:27:39;;;;;;;28.80;13.00;;;;;;;14.76;83.00;100357.61;113077;1197;22439;-60
2021/10/04 08:30:10;;;;;;;28.60;11.80;;;;;;;14.90;82.52;100351.73;112960;1199;22421;-61
2021/10/04 08:32:39;;;;;;;23.30;10.50;;;;;;;15.04;82.30;100347.80;112958;1198;23763;-63
2021/10/04 08:35:09;;;;;;;24.60;10.80;;;;;;;15.20;82.10;100345.98;113052;1192;22490;-63
2021/10/04 08:37:38;;;;;;;23.00;9.80;;;;;;;15.33;81.61;100345.10;113040;1199;22637;-63
2021/10/04 08:40:11;;;;;;;23.90;9.10;;;;;;;15.46;81.36;100348.75;113102;1193;22579;-63
2021/10/04 08:42:40;;;;;;;21.80;10.00;;;;;;;15.58;81.02;100349.70;112975;1197;24871;-63
2021/10/04 08:45:09;;;;;;;23.30;9.30;;;;;;;15.68;80.86;100350.79;113178;1194;23476;-63
2021/10/04 08:47:39;;;;;;;20.10;9.50;;;;;;;15.78;80.48;100353.54;113329;1199;22480;-63
2021/10/04 08:50:13;;;;;;;22.80;9.60;;;;;;;15.84;80.25;100348.42;113092;1199;22559;-63
2021/10/04 08:52:42;;;;;;;20.60;8.30;;;;;;;15.92;80.06;100349.13;113180;1197;22494;-63
2021/10/04 08:55:11;;;;;;;22.40;9.90;;;;;;;16.01;79.84;100346.97;113052;1199;23901;-63
2021/10/04 08:57:39;;;;;;;25.80;8.90;;;;;;;16.09;79.46;100355.41;113119;1197;25429;-62
2021/10/04 09:00:10;;;;;;;20.40;8.10;;;;;;;16.20;78.95;100356.72;113046;1199;25229;-63
2021/10/04 09:02:40;;;;;;;18.20;8.20;;;;;;;16.31;79.40;100356.89;113079;1199;22523;-63
2021/10/04 09:05:14;;;;;;;18.50;8.60;;;;;;;16.40;78.88;100351.80;113201;1199;25924;-63
2021/10/04 09:07:46;;;;;;;23.00;9.20;;;;;;;16.49;78.48;100353.88;113214;1199;22649;-63
2021/10/04 09:10:17;;;;;;;18.50;8.30;;;;;;;16.57;78.42;100352.54;113118;1193;24848;-63
2021/10/04 09:12:51;;;;;;;18.20;8.30;;;;;;;16.64;78.30;100356.20;113242;1199;22762;-63
2021/10/04 09:15:31;;;;;;;22.30;8.80;;;;;;;16.69;77.91;100351.72;113118;1197;22436;-63
2021/10/04 09:18:00;;;;;;;22.10;8.80;;;;;;;16.72;77.58;100350.79;112705;1197;22505;-63
2021/10/04 09:20:49;;;;;;;20.80;8.10;;;;;;;16.74;77.37;100349.02;113012;1199;22546;-63
2021/10/04 09:23:33;;;;;;;21.20;8.50;;;;;;;16.76;77.26;100353.34;113084;1199;22668;-62
2021/10/04 09:26:02;;;;;;;22.30;8.00;;;;;;;16.81;77.03;100351.98;112920;1198;25101;-62
2021/10/04 09:28:32;;;;;;;19.30;8.90;;;;;;;16.88;76.91;100357.58;113054;1199;25072;-63
2021/10/04 09:31:19;;;;;;;17.30;7.60;;;;;;;16.92;76.64;100363.20;113176;1197;22683;-63
2021/10/04 09:34:13;;;;;;;18.90;8.10;;;;;;;16.96;76.42;100360.48;113848;1171;22424;-58
2021/10/04 09:36:43;;;;;;;21.00;7.70;;;;;;;17.01;76.24;100359.89;112788;1203;22509;-59
2021/10/04 09:39:24;;;;;;;19.90;7.90;;;;;;;17.09;75.93;100361.94;112278;1203;25085;-60
2021/10/04 09:42:07;;;;;;;19.00;8.20;;;;;;;17.19;75.82;100366.09;112473;1203;24424;-56
2021/10/04 09:44:54;;;;;;;20.60;8.20;;;;;;;17.25;75.45;100365.80;112484;1203;22550;-60
2021/10/04 09:47:25;;;;;;;17.50;7.70;;;;;;;17.28;75.19;100366.39;112491;1203;22435;-58
2021/10/04 09:50:01;;;;;;;22.10;8.10;;;;;;;17.29;75.17;100367.21;112565;1196;23039;-60
2021/10/04 09:52:45;;;;;;;20.00;8.40;;;;;;;17.34;74.76;100369.64;112546;1196;23887;-61
2021/10/04 09:55:22;;;;;;;19.60;8.70;;;;;;;17.40;74.67;100370.63;112540;1203;22438;-61
2021/10/04 09:58:04;;;;;;;16.30;7.20;;;;;;;17.48;74.56;100367.60;112618;1197;22505;-61
2021/10/04 10:00:36;;;;;;;17.20;7.10;;;;;;;17.59;74.42;100366.27;112487;1203;22458;-60
2021/10/04 10:03:05;;;;;;;18.90;7.40;;;;;;;17.68;74.47;100363.63;112313;1203;24071;-59
2021/10/04 10:05:36;;;;;;;19.00;8.60;;;;;;;17.74;74.18;100357.58;112418;1203;22645;-58
2021/10/04 10:08:06;;;;;;;17.60;7.70;;;;;;;17.76;73.92;100358.98;112408;1196;24169;-60
2021/10/04 10:10:35;;;;;;;18.10;8.10;;;;;;;17.81;73.43;100349.88;112452;1203;22438;-58
2021/10/04 10:13:04;;;;;;;19.80;8.40;;;;;;;17.83;73.38;100350.41;112686;1200;22992;-62
2021/10/04 10:15:35;;;;;;;17.70;8.00;;;;;;;17.87;73.37;100357.20;113230;1198;22735;-59
2021/10/04 10:18:11;;;;;;;16.30;7.40;;;;;;;17.93;73.18;100362.39;113216;1193;25067;-59
2021/10/04 10:20:40;;;;;;;18.70;7.80;;;;;;;17.98;73.02;100368.20;112777;1199;22556;-62
2021/10/04 10:23:11;;;;;;;19.70;8.00;;;;;;;18.02;72.75;100372.23;113449;1199;22497;-61
2021/10/04 10:25:43;;;;;;;20.80;7.30;;;;;;;18.06;72.54;100364.78;113447;1192;22494;-58
2021/10/04 10:28:33;;;;;;;19.00;8.20;;;;;;;18.09;72.44;100361.84;113233;1199;22436;-61
2021/10/04 10:31:01;;;;;;;18.80;7.80;;;;;;;18.15;72.76;100360.17;112920;1197;24180;-60
2021/10/04 10:33:50;;;;;;;17.40;7.10;;;;;;;18.22;72.72;100364.11;113257;1197;25163;-58
2021/10/04 10:36:39;;;;;;;19.70;9.50;;;;;;;18.32;72.40;100366.39;113168;1199;24910;-61
2021/10/04 10:39:08;;;;;;;20.20;8.10;;;;;;;18.38;72.17;100356.65;112951;1199;25814;-62
2021/10/04 10:41:36;;;;;;;18.60;7.70;;;;;;;18.44;72.24;100358.46;113093;1197;22568;-62
2021/10/04 10:44:10;;;;;;;16.80;7.20;;;;;;;18.51;71.66;100364.65;113120;1199;25152;-59
2021/10/04 10:46:54;;;;;;;15.70;6.90;;;;;;;18.59;71.14;100371.76;113174;1199;22421;-57
2021/10/04 10:49:58;;;;;;;17.20;6.90;;;;;;;18.62;71.13;100366.02;113074;1193;22885;-59
2021/10/04 10:52:29;;;;;;;18.90;7.30;;;;;;;18.65;70.78;100365.02;112881;1200;22665;-61
2021/10/04 10:54:59;;;;;;;18.90;7.30;;;;;;;18.68;70.75;100364.77;113129;1199;22383;-59
2021/10/04 10:58:02;;;;;;;17.00;6.90;;;;;;;18.70;70.62;100365.52;113171;1199;22428;-59
2021/10/04 11:00:33;;;;;;;12.50;5.60;;;;;;;18.73;70.42;100372.31;113402;1199;22439;-59
2021/10/04 11:03:04;;;;;;;18.30;6.30;;;;;;;18.76;70.39;100375.20;113116;1193;22556;-60
2021/10/04 11:06:00;;;;;;;15.10;5.70;;;;;;;18.80;70.17;100377.48;113148;1199;24146;-60
2021/10/04 11:08:56;;;;;;;13.70;5.80;;;;;;;18.85;70.11;100377.67;113247;1199;24268;-58
2021/10/04 11:11:34;;;;;;;15.10;6.00;;;;;;;18.89;69.98;100381.83;112489;1188;24082;-59
2021/10/04 11:14:13;;;;;;;14.50;5.40;;;;;;;18.93;69.83;100381.38;112434;1203;25061;-59
2021/10/04 11:17:00;;;;;;;15.30;5.70;;;;;;;18.97;69.85;100384.88;112356;1198;22946;-59
2021/10/04 11:19:36;;;;;;;16.90;6.20;;;;;;;19.07;69.64;100390.23;112351;1197;22486;-60
2021/10/04 11:22:06;;;;;;;14.30;5.00;;;;;;;19.15;69.16;100386.91;112557;1203;22459;-60